createdAt,value
2022-08-10T00:00:56.420Z,99.90
2022-08-10T00:03:23.149Z,99.90
2022-08-10T00:05:52.825Z,99.90
2022-08-10T00:08:24.125Z,99.90
2022-08-10T00:10:55.375Z,99.90
2022-08-10T00:13:23.022Z,99.90
2022-08-10T00:15:53.848Z,99.90
2022-08-10T00:18:34.287Z,99.90
2022-08-10T00:21:05.166Z,99.90
2022-08-10T00:23:32.376Z,99.90
2022-08-10T00:25:59.305Z,99.90
2022-08-10T00:28:26.210Z,99.90
2022-08-10T00:30:53.052Z,99.90
2022-08-10T00:33:20.907Z,99.90
2022-08-10T00:35:48.074Z,99.90
2022-08-10T00:38:14.917Z,99.90
2022-08-10T00:40:41.763Z,99.90
2022-08-10T00:43:08.919Z,99.90
2022-08-10T00:45:36.107Z,99.90
2022-08-10T00:48:03.631Z,99.90
2022-08-10T00:50:30.462Z,99.90
2022-08-10T00:52:57.318Z,99.90
2022-08-10T00:55:24.564Z,99.90
2022-08-10T00:57:55.136Z,99.90
2022-08-10T01:00:25.720Z,99.90
2022-08-10T01:02:53.153Z,99.90
2022-08-10T01:05:22.755Z,99.90
2022-08-10T01:08:10.902Z,99.90
2022-08-10T01:10:45.487Z,99.90
2022-08-10T01:13:31.001Z,99.90
2022-08-10T01:16:33.194Z,99.90
2022-08-10T01:19:37.171Z,99.90
2022-08-10T01:22:18.739Z,99.90
2022-08-10T01:25:00.773Z,99.90
2022-08-10T01:27:56.239Z,99.90
2022-08-10T01:30:23.752Z,99.90
2022-08-10T01:33:13.900Z,99.90
2022-08-10T01:35:58.041Z,99.90
2022-08-10T01:38:28.066Z,99.90
2022-08-10T01:41:02.945Z,99.90
2022-08-10T01:43:30.009Z,99.90
2022-08-10T01:45:58.087Z,99.90
2022-08-10T01:48:47.691Z,99.90
2022-08-10T01:51:27.027Z,99.90
2022-08-10T01:53:56.837Z,99.90
2022-08-10T01:56:25.504Z,99.90
2022-08-10T01:59:00.619Z,99.90
2022-08-10T02:01:29.918Z,99.90
2022-08-10T02:04:06.295Z,99.90
2022-08-10T02:06:46.444Z,99.90
2022-08-10T02:09:16.092Z,99.90
2022-08-10T02:12:05.572Z,99.90
2022-08-10T02:14:48.322Z,99.90
2022-08-10T02:17:59.431Z,99.90
2022-08-10T02:20:13.118Z,99.90
2022-08-10T02:22:40.056Z,99.90
2022-08-10T02:25:08.023Z,99.90
2022-08-10T02:27:35.040Z,99.90
2022-08-10T02:30:01.813Z,99.90
2022-08-10T02:32:37.722Z,99.90
2022-08-10T02:35:18.670Z,99.90
2022-08-10T02:37:50.586Z,99.90
2022-08-10T02:45:12.827Z,99.90
2022-08-10T02:45:27.816Z,99.90
2022-08-10T02:46:11.254Z,99.90
2022-08-10T02:48:39.549Z,99.90
2022-08-10T02:51:09.440Z,99.90
2022-08-10T02:53:54.743Z,99.90
2022-08-10T02:56:38.634Z,99.90
2022-08-10T02:59:11.959Z,99.90
2022-08-10T03:01:43.305Z,99.90
2022-08-10T03:04:56.023Z,99.90
2022-08-10T03:07:13.760Z,99.90
2022-08-10T03:09:41.128Z,99.90
2022-08-10T03:12:35.507Z,99.90
2022-08-10T03:14:55.767Z,99.90
2022-08-10T03:17:30.052Z,99.90
2022-08-10T03:20:34.222Z,99.90
2022-08-10T03:22:44.469Z,99.90
2022-08-10T03:25:12.234Z,99.90
2022-08-10T03:27:42.253Z,99.90
2022-08-10T03:30:28.213Z,99.90
2022-08-10T03:32:57.299Z,99.90
2022-08-10T03:35:24.384Z,99.90
2022-08-10T03:37:51.332Z,99.90
2022-08-10T03:40:32.173Z,99.90
2022-08-10T03:43:18.710Z,99.90
2022-08-10T03:45:55.735Z,99.90
2022-08-10T03:48:32.255Z,99.90
2022-08-10T03:51:12.013Z,99.90
2022-08-10T03:54:05.350Z,99.90
2022-08-10T03:56:28.498Z,99.90
2022-08-10T03:58:57.650Z,99.90
2022-08-10T04:02:52.385Z,99.90
2022-08-10T04:04:13.894Z,99.90
2022-08-10T04:06:43.339Z,99.90
2022-08-10T04:09:10.179Z,99.90
2022-08-10T04:11:37.237Z,99.90
2022-08-10T04:14:35.615Z,99.90
2022-08-10T04:16:55.263Z,99.90
2022-08-10T04:19:22.468Z,99.90
2022-08-10T04:22:07.461Z,99.90
2022-08-10T04:24:34.942Z,99.90
2022-08-10T04:27:04.696Z,99.90
2022-08-10T04:29:31.429Z,99.90
2022-08-10T04:31:58.224Z,99.90
2022-08-10T04:34:25.010Z,99.90
2022-08-10T04:36:51.795Z,99.90
2022-08-10T04:39:18.649Z,99.90
2022-08-10T04:41:46.068Z,99.90
2022-08-10T04:44:14.374Z,99.90
2022-08-10T04:46:55.415Z,99.90
2022-08-10T04:49:54.068Z,99.90
2022-08-10T04:52:10.230Z,99.90
2022-08-10T04:54:36.997Z,99.90
2022-08-10T04:57:04.292Z,99.90
2022-08-10T04:59:31.135Z,99.90
2022-08-10T05:02:30.215Z,99.90
2022-08-10T05:04:44.615Z,99.90
2022-08-10T05:07:16.709Z,99.90
2022-08-10T05:10:01.557Z,99.90
2022-08-10T05:12:37.683Z,99.90
2022-08-10T05:15:12.853Z,99.90
2022-08-10T05:17:41.282Z,99.90
2022-08-10T05:20:28.131Z,99.90
2022-08-10T05:22:54.903Z,99.90
2022-08-10T05:25:21.675Z,99.90
2022-08-10T05:27:48.821Z,99.90
2022-08-10T05:30:17.904Z,99.90
2022-08-10T05:32:59.222Z,99.90
2022-08-10T05:35:52.856Z,99.90
2022-08-10T05:38:23.192Z,99.90
2022-08-10T05:40:50.363Z,99.90
2022-08-10T05:43:18.629Z,99.90
2022-08-10T05:46:19.074Z,99.90
2022-08-10T05:48:55.889Z,99.90
2022-08-10T05:51:20.701Z,99.90
2022-08-10T05:54:01.559Z,99.90
2022-08-10T05:56:55.170Z,99.90
2022-08-10T06:00:09.135Z,99.90
2022-08-10T06:02:33.059Z,99.90
2022-08-10T06:04:53.357Z,99.90
2022-08-10T06:07:21.915Z,99.90
2022-08-10T06:09:59.214Z,99.90
2022-08-10T06:12:30.077Z,99.90
2022-08-10T06:15:05.053Z,99.90
2022-08-10T06:17:33.012Z,99.90
2022-08-10T06:20:00.695Z,99.90
2022-08-10T06:22:29.911Z,99.90
2022-08-10T06:25:27.034Z,99.90
2022-08-10T06:27:43.801Z,99.90
2022-08-10T06:30:20.089Z,99.90
2022-08-10T06:32:52.613Z,99.90
2022-08-10T06:35:19.494Z,99.90
2022-08-10T06:37:51.487Z,99.90
2022-08-10T06:40:19.847Z,99.90
2022-08-10T06:42:48.440Z,99.90
2022-08-10T06:45:29.520Z,99.90
2022-08-10T06:48:00.779Z,99.90
2022-08-10T06:50:56.461Z,99.90
2022-08-10T06:53:22.302Z,99.90
2022-08-10T06:55:56.764Z,99.90
2022-08-10T06:58:32.172Z,99.90
2022-08-10T07:01:02.868Z,99.90
2022-08-10T07:03:34.312Z,99.90
2022-08-10T07:06:01.035Z,99.90
2022-08-10T07:08:27.756Z,99.90
2022-08-10T07:10:54.520Z,99.90
2022-08-10T07:14:14.524Z,99.90
2022-08-10T07:16:10.240Z,99.90
2022-08-10T07:18:37.243Z,99.90
2022-08-10T07:21:04.384Z,99.90
2022-08-10T07:24:00.009Z,99.90
2022-08-10T07:26:18.426Z,99.90
2022-08-10T07:28:48.097Z,99.90
2022-08-10T07:31:31.073Z,99.90
2022-08-10T07:34:06.499Z,99.90
2022-08-10T07:36:34.142Z,99.90
2022-08-10T07:39:00.958Z,99.90
2022-08-10T07:41:31.865Z,99.90
2022-08-10T07:44:00.097Z,99.90
2022-08-10T07:46:26.914Z,99.90
2022-08-10T07:49:03.020Z,99.90
2022-08-10T07:51:54.460Z,99.90
2022-08-10T07:54:23.737Z,99.90
2022-08-10T07:56:52.780Z,99.90
2022-08-10T07:59:29.441Z,99.90
2022-08-10T08:01:56.650Z,99.90
2022-08-10T08:04:24.579Z,99.90
2022-08-10T08:06:51.800Z,99.90
2022-08-10T08:09:22.225Z,99.90
2022-08-10T08:11:49.627Z,99.90
2022-08-10T08:14:16.767Z,99.90
2022-08-10T08:16:46.505Z,99.90
2022-08-10T08:19:37.030Z,99.90
2022-08-10T08:24:05.335Z,99.90
2022-08-10T08:24:47.774Z,99.90
2022-08-10T08:27:19.885Z,99.90
2022-08-10T08:29:48.034Z,99.90
2022-08-10T08:32:20.309Z,99.90
2022-08-10T08:34:47.188Z,99.90
2022-08-10T08:37:18.787Z,99.90
2022-08-10T08:40:16.505Z,99.90
2022-08-10T08:43:50.717Z,99.90
2022-08-10T08:46:42.424Z,99.90
2022-08-10T08:50:07.787Z,99.90
2022-08-10T08:52:38.980Z,99.90
2022-08-10T08:55:56.119Z,99.90
2022-08-10T08:58:26.796Z,99.90
2022-08-10T09:01:40.831Z,99.90
2022-08-10T09:04:21.081Z,99.90
2022-08-10T09:07:07.171Z,99.90
2022-08-10T09:10:19.692Z,99.90
2022-08-10T09:13:29.385Z,99.90
2022-08-10T09:16:13.916Z,99.90
2022-08-10T09:19:03.260Z,99.90
2022-08-10T09:21:56.757Z,99.90
2022-08-10T09:24:45.461Z,99.90
2022-08-10T09:27:51.374Z,99.90
2022-08-10T09:30:31.222Z,99.90
2022-08-10T09:36:25.984Z,99.90
2022-08-10T09:36:33.277Z,99.90
2022-08-10T09:40:46.256Z,99.90
2022-08-10T09:46:38.868Z,99.90
2022-08-10T09:49:17.341Z,99.90
2022-08-10T09:51:51.319Z,99.90
2022-08-10T09:54:43.943Z,99.90
2022-08-10T09:57:47.950Z,99.90
2022-08-10T10:00:16.587Z,99.90
2022-08-10T10:03:24.064Z,99.90
2022-08-10T10:06:03.643Z,99.90
2022-08-10T10:09:10.587Z,99.90
2022-08-10T10:12:09.943Z,99.90
2022-08-10T10:15:25.019Z,99.90
2022-08-10T10:18:07.698Z,99.90
2022-08-10T10:20:48.599Z,99.90
2022-08-10T10:24:15.865Z,99.90
2022-08-10T10:26:54.742Z,99.90
2022-08-10T10:29:56.836Z,99.90
2022-08-10T10:32:36.946Z,99.90
2022-08-10T10:35:22.356Z,99.90
2022-08-10T10:38:01.888Z,99.90
2022-08-10T10:40:44.444Z,99.90
2022-08-10T10:43:14.295Z,99.90
2022-08-10T10:46:12.748Z,99.90
2022-08-10T10:49:00.897Z,99.90
2022-08-10T10:51:56.350Z,99.70
2022-08-10T10:54:56.971Z,98.50
2022-08-10T10:58:00.390Z,98.70
2022-08-10T11:00:17.650Z,97.80
2022-08-10T11:03:20.768Z,97.70
2022-08-10T11:06:40.263Z,96.60
2022-08-10T11:10:06.971Z,96.80
2022-08-10T11:12:09.456Z,96.00
2022-08-10T11:14:44.732Z,95.20
2022-08-10T11:17:17.577Z,94.90
2022-08-10T11:20:22.446Z,93.60
2022-08-10T11:23:19.825Z,93.80
2022-08-10T11:25:52.198Z,93.60
2022-08-10T11:28:37.351Z,93.00
2022-08-10T11:31:17.929Z,92.50
2022-08-10T11:34:49.361Z,92.80
2022-08-10T11:36:58.942Z,92.60
2022-08-10T11:39:32.003Z,92.40
2022-08-10T11:42:21.282Z,92.10
2022-08-10T11:45:07.124Z,91.70
2022-08-10T11:47:53.364Z,91.10
2022-08-10T11:50:33.394Z,90.30
2022-08-10T11:53:13.761Z,90.00
2022-08-10T11:55:40.576Z,89.30
2022-08-10T11:58:31.455Z,89.70
2022-08-10T12:01:02.229Z,89.80
2022-08-10T12:03:34.712Z,88.60
2022-08-10T12:06:01.802Z,86.70
2022-08-10T12:10:06.463Z,86.40
2022-08-10T12:11:23.963Z,86.40
2022-08-10T12:14:29.696Z,85.70
2022-08-10T12:17:05.549Z,85.90
2022-08-10T12:20:01.976Z,83.90
2022-08-10T12:22:42.379Z,82.30
2022-08-10T12:25:11.682Z,82.50
2022-08-10T12:28:02.503Z,82.50
2022-08-10T12:30:34.319Z,81.90
2022-08-10T12:33:03.850Z,81.40
2022-08-10T12:36:14.994Z,80.90
2022-08-10T12:39:04.046Z,79.60
2022-08-10T12:41:43.533Z,78.80
2022-08-10T12:44:16.031Z,77.40
2022-08-10T12:46:59.036Z,76.10
2022-08-10T12:49:37.761Z,74.60
2022-08-10T12:52:24.120Z,74.50
2022-08-10T12:54:52.934Z,73.70
2022-08-10T12:57:22.600Z,73.60
2022-08-10T12:59:51.530Z,73.40
2022-08-10T13:02:28.676Z,73.70
2022-08-10T13:04:57.614Z,73.20
2022-08-10T13:08:24.782Z,73.20
2022-08-10T13:10:14.966Z,71.40
2022-08-10T13:12:45.363Z,71.20
2022-08-10T13:15:45.633Z,71.40
2022-08-10T13:18:17.772Z,70.00
2022-08-10T13:20:49.898Z,70.00
2022-08-10T13:23:19.884Z,70.30
2022-08-10T13:25:48.431Z,70.40
2022-08-10T13:28:36.018Z,70.20
2022-08-10T13:31:11.376Z,69.50
2022-08-10T13:34:38.863Z,68.40
2022-08-10T13:36:38.981Z,68.60
2022-08-10T13:39:06.402Z,67.40
2022-08-10T13:41:38.243Z,67.00
2022-08-10T13:44:05.144Z,66.70
2022-08-10T13:46:31.907Z,66.60
2022-08-10T13:48:58.667Z,66.20
2022-08-10T13:51:54.152Z,65.80
2022-08-10T13:54:16.014Z,66.00
2022-08-10T13:56:44.591Z,66.40
2022-08-10T13:59:12.904Z,65.80
2022-08-10T14:01:50.816Z,66.50
2022-08-10T14:04:18.719Z,66.30
2022-08-10T14:06:51.682Z,65.90
2022-08-10T14:09:18.447Z,65.50
2022-08-10T14:11:46.727Z,65.90
2022-08-10T14:14:20.720Z,65.70
2022-08-10T14:16:47.658Z,66.20
2022-08-10T14:19:21.360Z,66.30
2022-08-10T14:21:48.887Z,66.70
2022-08-10T14:24:26.372Z,66.90
2022-08-10T14:27:09.266Z,67.40
2022-08-10T14:29:43.761Z,68.40
2022-08-10T14:32:11.224Z,68.80
2022-08-10T14:36:16.577Z,69.80
2022-08-10T14:37:40.350Z,70.10
2022-08-10T14:40:13.863Z,69.90
2022-08-10T14:42:54.202Z,70.40
2022-08-10T14:45:34.818Z,70.70
2022-08-10T14:48:17.368Z,70.60
2022-08-10T14:50:55.357Z,71.00
2022-08-10T14:53:29.799Z,71.50
2022-08-10T14:56:08.423Z,71.60
2022-08-10T14:58:38.887Z,72.70
2022-08-10T15:01:25.565Z,72.40
2022-08-10T15:04:13.462Z,72.40
2022-08-10T15:06:54.068Z,72.50
2022-08-10T15:09:23.658Z,72.30
2022-08-10T15:12:12.935Z,72.60
2022-08-10T15:14:47.336Z,72.80
2022-08-10T15:17:23.686Z,73.10
2022-08-10T15:20:03.695Z,73.70
2022-08-10T15:22:45.315Z,73.90
2022-08-10T15:25:18.270Z,74.60
2022-08-10T15:27:53.829Z,74.00
2022-08-10T15:30:29.804Z,74.20
2022-08-10T15:33:21.625Z,75.10
2022-08-10T15:36:24.120Z,75.40
2022-08-10T15:38:58.573Z,75.30
2022-08-10T15:41:59.826Z,74.90
2022-08-10T15:44:38.889Z,74.80
2022-08-10T15:47:45.710Z,74.70
2022-08-10T15:50:42.526Z,74.30
2022-08-10T15:53:47.010Z,73.70
2022-08-10T15:56:43.152Z,73.90
2022-08-10T15:59:17.140Z,74.00
2022-08-10T16:02:14.619Z,74.30
2022-08-10T16:04:48.498Z,74.20
2022-08-10T16:07:45.417Z,74.30
2022-08-10T16:10:26.000Z,74.40
2022-08-10T16:13:50.807Z,74.60
2022-08-10T16:15:56.727Z,75.00
2022-08-10T16:18:28.679Z,75.50
2022-08-10T16:21:08.280Z,75.50
2022-08-10T16:23:38.300Z,75.80
2022-08-10T16:26:15.049Z,76.00
2022-08-10T16:29:13.049Z,75.80
2022-08-10T16:31:48.367Z,75.80
2022-08-10T16:34:17.016Z,75.90
2022-08-10T16:36:53.035Z,75.70
2022-08-10T16:39:57.922Z,75.70
2022-08-10T16:42:29.675Z,75.80
2022-08-10T16:45:01.135Z,76.30
2022-08-10T16:47:28.881Z,76.20
2022-08-10T16:49:58.459Z,75.80
2022-08-10T16:52:26.781Z,75.70
2022-08-10T16:55:16.910Z,75.50
2022-08-10T16:57:53.954Z,75.70
2022-08-10T17:00:22.661Z,76.00
2022-08-10T17:02:51.485Z,76.10
2022-08-10T17:06:09.731Z,76.10
2022-08-10T17:08:11.591Z,76.10
2022-08-10T17:10:38.447Z,75.80
2022-08-10T17:13:06.618Z,76.00
2022-08-10T17:15:33.587Z,76.00
2022-08-10T17:18:02.910Z,76.20
2022-08-10T17:20:38.817Z,76.20
2022-08-10T17:23:10.438Z,76.40
2022-08-10T17:25:46.178Z,76.70
2022-08-10T17:28:32.794Z,77.00
2022-08-10T17:31:23.915Z,77.40
2022-08-10T17:33:55.958Z,77.40
2022-08-10T17:36:23.708Z,77.40
2022-08-10T17:38:50.509Z,77.40
2022-08-10T17:41:21.640Z,77.60
2022-08-10T17:44:02.714Z,77.70
2022-08-10T17:46:38.506Z,78.00
2022-08-10T17:49:08.079Z,78.20
2022-08-10T17:51:35.866Z,78.60
2022-08-10T17:54:06.788Z,78.60
2022-08-10T17:56:33.759Z,78.60
2022-08-10T17:59:01.720Z,78.70
2022-08-10T18:01:40.866Z,78.90
2022-08-10T18:04:18.423Z,79.00
2022-08-10T18:06:45.201Z,79.10
2022-08-10T18:09:24.513Z,79.20
2022-08-10T18:11:51.288Z,79.40
2022-08-10T18:14:18.100Z,79.90
2022-08-10T18:16:44.890Z,80.20
2022-08-10T18:19:14.052Z,81.20
2022-08-10T18:21:43.128Z,81.30
2022-08-10T18:24:16.180Z,81.20
2022-08-10T18:26:44.975Z,81.50
2022-08-10T18:29:18.652Z,81.90
2022-08-10T18:31:47.046Z,82.20
2022-08-10T18:34:17.611Z,82.70
2022-08-10T18:36:45.158Z,82.90
2022-08-10T18:39:13.255Z,83.30
2022-08-10T18:42:00.612Z,83.70
2022-08-10T18:44:36.404Z,84.00
2022-08-10T18:47:06.659Z,84.40
2022-08-10T18:49:36.805Z,84.80
2022-08-10T18:52:05.863Z,85.10
2022-08-10T18:54:45.250Z,85.40
2022-08-10T18:57:46.256Z,85.90
2022-08-10T19:00:13.681Z,86.20
2022-08-10T19:02:53.734Z,86.70
2022-08-10T19:05:39.410Z,87.10
2022-08-10T19:08:30.847Z,87.60
2022-08-10T19:11:20.204Z,88.00
2022-08-10T19:14:07.725Z,88.40
2022-08-10T19:16:56.386Z,88.80
2022-08-10T19:19:33.987Z,89.40
2022-08-10T19:22:08.624Z,89.90
2022-08-10T19:24:45.857Z,90.10
2022-08-10T19:27:48.437Z,90.30
2022-08-10T19:30:17.610Z,90.50
2022-08-10T19:33:09.615Z,90.80
2022-08-10T19:36:03.736Z,90.90
2022-08-10T19:38:50.448Z,91.00
2022-08-10T19:41:17.885Z,91.30
2022-08-10T19:44:03.793Z,91.40
2022-08-10T19:46:45.020Z,91.90
2022-08-10T19:49:42.715Z,91.90
2022-08-10T19:52:10.860Z,92.10
2022-08-10T19:54:44.431Z,92.30
2022-08-10T19:57:30.487Z,92.50
2022-08-10T20:00:19.104Z,92.70
2022-08-10T20:03:10.884Z,92.90
2022-08-10T20:06:18.331Z,93.30
2022-08-10T20:08:46.264Z,93.50
2022-08-10T20:11:54.989Z,93.70
2022-08-10T20:14:36.509Z,93.90
2022-08-10T20:17:34.548Z,94.20
2022-08-10T20:20:29.151Z,94.30
2022-08-10T20:23:15.989Z,94.50
2022-08-10T20:26:05.863Z,94.70
2022-08-10T20:29:09.095Z,94.90
2022-08-10T20:31:40.245Z,95.10
2022-08-10T20:34:18.209Z,95.20
2022-08-10T20:37:05.820Z,95.40
2022-08-10T20:40:10.094Z,95.60
2022-08-10T20:42:44.974Z,95.80
2022-08-10T20:45:21.800Z,95.90
2022-08-10T20:48:09.994Z,96.00
2022-08-10T20:50:43.388Z,96.10
2022-08-10T20:53:12.670Z,96.30
2022-08-10T20:55:46.828Z,96.40
2022-08-10T20:58:45.287Z,96.50
2022-08-10T21:01:17.410Z,96.70
2022-08-10T21:03:53.899Z,96.90
2022-08-10T21:06:44.003Z,97.10
2022-08-10T21:09:17.337Z,97.30
2022-08-10T21:12:07.123Z,97.50
2022-08-10T21:15:01.203Z,97.70
2022-08-10T21:17:56.043Z,98.00
2022-08-10T21:20:47.559Z,98.30
2022-08-10T21:23:14.469Z,98.60
2022-08-10T21:25:58.894Z,99.00
2022-08-10T21:28:38.263Z,99.20
2022-08-10T21:31:16.455Z,99.50
2022-08-10T21:34:12.866Z,99.70
2022-08-10T21:36:59.248Z,99.90
2022-08-10T21:39:54.984Z,99.90
2022-08-10T21:43:07.651Z,99.90
2022-08-10T21:46:02.005Z,99.90
2022-08-10T21:49:10.522Z,99.90
2022-08-10T21:52:22.601Z,99.90
2022-08-10T21:55:14.457Z,99.90
2022-08-10T21:58:18.192Z,99.90
2022-08-10T22:01:09.256Z,99.90
2022-08-10T22:03:58.240Z,99.90
2022-08-10T22:06:52.096Z,99.90
2022-08-10T22:09:42.870Z,99.90
2022-08-10T22:12:31.889Z,99.90
2022-08-10T22:16:05.587Z,99.90
2022-08-10T22:18:58.762Z,99.90
2022-08-10T22:22:27.870Z,99.90
2022-08-10T22:26:01.673Z,99.90
2022-08-10T22:28:48.809Z,99.90
2022-08-10T22:31:43.771Z,99.90
2022-08-10T22:34:41.354Z,99.90
2022-08-10T22:37:35.756Z,99.90
2022-08-10T22:40:21.166Z,99.90
2022-08-10T22:43:10.808Z,99.90
2022-08-10T22:46:10.739Z,99.90
2022-08-10T22:48:59.802Z,99.90
2022-08-10T22:52:14.152Z,99.90
2022-08-10T22:55:23.021Z,99.90
2022-08-10T22:58:09.013Z,99.90
2022-08-10T23:00:36.198Z,99.90
2022-08-10T23:03:15.057Z,99.90
2022-08-10T23:05:54.370Z,99.90
2022-08-10T23:08:31.457Z,99.90
2022-08-10T23:11:06.604Z,99.90
2022-08-10T23:13:36.873Z,99.90
2022-08-10T23:16:23.392Z,99.90
2022-08-10T23:19:09.494Z,99.90
2022-08-10T23:22:04.506Z,99.90
2022-08-10T23:24:43.948Z,99.90
2022-08-10T23:27:37.433Z,99.90
2022-08-10T23:30:09.438Z,99.90
2022-08-10T23:32:40.990Z,99.90
2022-08-10T23:36:29.968Z,99.90
2022-08-10T23:38:00.347Z,99.90
2022-08-10T23:40:27.100Z,99.90
2022-08-10T23:42:53.811Z,99.90
2022-08-10T23:45:23.199Z,99.90
2022-08-10T23:47:57.766Z,99.90
2022-08-10T23:50:26.553Z,99.90
2022-08-10T23:53:03.355Z,99.90
2022-08-10T23:55:49.304Z,99.90
2022-08-10T23:58:22.223Z,99.90
